Time;durP1;ratioP1;P1;durP2;ratioP2;P2;SDS_P1;SDS_P2;PMS_P1;PMS_P2;Temp;Humidity;BMP_temperature;BMP_pressure;BME280_temperature;BME280_humidity;BME280_pressure;Samples;Min_cycle;Max_cycle;Signal;HPM_P1;HPM_P2
2022/11/21 00:09:05;;;;;;;19.43;6.73;;;;;;;13.68;100.00;99796.69;31444478;28;20071;-79
2022/11/21 00:24:09;;;;;;;26.97;8.83;;;;;;;13.60;100.00;99795.44;31415805;28;20053;-78
2022/11/21 00:39:11;;;;;;;30.73;8.57;;;;;;;13.50;100.00;99763.84;31435573;28;20407;-77
2022/11/21 00:54:13;;;;;;;17.33;6.03;;;;;;;13.43;100.00;99758.66;31422992;28;20052;-79
2022/11/21 01:09:14;;;;;;;23.60;8.60;;;;;;;13.39;100.00;99763.50;31410452;28;20052;-78
2022/11/21 01:24:16;;;;;;;14.13;6.73;;;;;;;13.45;100.00;99750.81;31431164;28;20044;-78
2022/11/21 01:39:18;;;;;;;17.83;6.37;;;;;;;13.19;100.00;99750.94;31409911;28;20056;-79
2022/11/21 01:54:28;;;;;;;14.83;6.67;;;;;;;13.16;100.00;99743.66;31428417;28;20049;-78
2022/11/21 02:09:33;;;;;;;14.77;5.93;;;;;;;13.28;100.00;99756.44;31431893;28;20103;-79
2022/11/21 02:25:11;;;;;;;22.83;7.10;;;;;;;13.36;100.00;99751.50;31424366;28;20056;-79
2022/11/21 02:40:20;;;;;;;25.13;8.83;;;;;;;13.46;100.00;99747.63;31382100;28;20052;-79
2022/11/21 02:55:24;;;;;;;18.97;6.57;;;;;;;13.39;100.00;99752.59;31424767;28;20049;-80
2022/11/21 03:10:26;;;;;;;20.83;6.37;;;;;;;13.28;100.00;99742.81;31445889;28;20068;-79
2022/11/21 03:25:28;;;;;;;21.47;6.47;;;;;;;13.18;100.00;99729.59;31431210;28;20045;-80
2022/11/21 03:40:30;;;;;;;13.73;5.87;;;;;;;13.21;100.00;99751.28;31439642;28;20044;-79
2022/11/21 03:55:32;;;;;;;17.17;7.33;;;;;;;13.21;100.00;99761.41;31423551;28;20053;-78
2022/11/21 04:10:33;;;;;;;11.67;5.70;;;;;;;13.24;100.00;99742.19;31412920;28;20060;-80
2022/11/21 04:25:35;;;;;;;20.10;6.73;;;;;;;13.21;100.00;99742.34;31414796;28;20057;-79
2022/11/21 04:40:37;;;;;;;19.97;6.60;;;;;;;13.24;100.00;99725.06;31421215;28;20052;-80
2022/11/21 04:55:39;;;;;;;24.17;5.87;;;;;;;13.18;100.00;99722.19;31418656;28;20056;-80
2022/11/21 05:26:02;;;;;;;19.83;5.93;;;;;;;13.14;100.00;99720.75;31422639;28;20056;-79
2022/11/21 05:41:04;;;;;;;19.07;7.03;;;;;;;13.11;100.00;99727.09;31450376;28;20048;-79
2022/11/21 05:56:09;;;;;;;15.60;7.13;;;;;;;13.10;100.00;99737.22;31435702;28;20520;-81
2022/11/21 06:11:13;;;;;;;15.73;5.47;;;;;;;13.05;100.00;99740.50;31434550;28;20053;-82
2022/11/21 06:26:18;;;;;;;18.07;8.57;;;;;;;13.10;100.00;99741.91;31441311;28;20072;-80
2022/11/21 06:41:22;;;;;;;30.47;9.17;;;;;;;13.09;100.00;99738.44;31436130;28;20519;-80
2022/11/21 06:56:26;;;;;;;23.53;9.40;;;;;;;13.21;100.00;99748.53;31435498;28;20494;-81
2022/11/21 07:11:29;;;;;;;27.43;8.23;;;;;;;13.30;100.00;99740.41;31427137;28;20110;-84
2022/11/21 07:26:31;;;;;;;37.17;11.07;;;;;;;13.48;100.00;99733.53;31446520;28;20463;-82
2022/11/21 07:41:33;;;;;;;29.50;9.87;;;;;;;13.85;100.00;99746.16;31456896;28;20044;-80
2022/11/21 07:56:35;;;;;;;27.50;9.43;;;;;;;13.95;100.00;99761.34;31428756;28;20057;-81
2022/11/21 08:11:37;;;;;;;46.07;18.83;;;;;;;14.16;100.00;99765.22;31427683;28;20620;-84
2022/11/21 08:26:43;;;;;;;27.50;10.23;;;;;;;14.50;100.00;99756.06;31410353;28;20040;-80
2022/11/21 08:42:04;;;;;;;25.37;8.50;;;;;;;14.56;100.00;99765.19;31416275;28;20078;-82
2022/11/21 08:57:06;;;;;;;25.97;7.77;;;;;;;14.51;100.00;99757.56;31441365;28;20049;-81
2022/11/21 09:12:08;;;;;;;22.53;8.53;;;;;;;14.55;100.00;99758.19;31418429;28;20401;-80
2022/11/21 09:27:10;;;;;;;22.23;10.60;;;;;;;14.58;100.00;99754.56;31426647;28;20048;-81
2022/11/21 09:42:38;;;;;;;24.40;8.83;;;;;;;14.70;100.00;99719.34;31419530;28;20052;-81
2022/11/21 09:57:41;;;;;;;16.30;8.50;;;;;;;14.72;100.00;99716.91;31411221;28;20431;-81
2022/11/21 10:13:04;;;;;;;23.30;7.90;;;;;;;14.73;100.00;99712.97;31422129;28;20122;-81
2022/11/21 10:28:19;;;;;;;23.63;7.73;;;;;;;14.87;100.00;99695.97;31425828;28;20053;-82
2022/11/21 10:59:22;;;;;;;20.57;7.60;;;;;;;14.76;100.00;99668.34;31416982;28;20060;-82
2022/11/21 11:14:32;;;;;;;18.87;7.87;;;;;;;14.84;100.00;99659.38;31438264;28;20044;-82
2022/11/21 11:29:49;;;;;;;15.70;6.83;;;;;;;15.19;100.00;99657.03;31438400;28;20086;-82
2022/11/21 12:00:34;;;;;;;29.37;8.17;;;;;;;15.19;100.00;99612.53;31433089;28;20482;-82
2022/11/21 12:15:48;;;;;;;34.83;8.80;;;;;;;15.07;100.00;99608.78;31443048;28;20049;-81
2022/11/21 12:31:01;;;;;;;19.97;8.70;;;;;;;14.89;100.00;99595.91;31415501;28;20119;-82
2022/11/21 12:46:34;;;;;;;26.57;10.10;;;;;;;14.86;100.00;99579.69;31423267;28;20059;-83
2022/11/21 13:02:19;;;;;;;25.03;9.53;;;;;;;14.92;100.00;99586.78;31431153;28;20056;-82
2022/11/21 13:17:45;;;;;;;21.27;8.87;;;;;;;15.04;100.00;99595.28;31367183;28;20060;-82
2022/11/21 13:32:53;;;;;;;24.50;7.83;;;;;;;15.20;100.00;99582.00;31374562;28;20060;-82
2022/11/21 13:48:09;;;;;;;23.13;7.73;;;;;;;15.23;100.00;99586.53;31425563;28;20053;-82
2022/11/21 14:03:30;;;;;;;21.57;7.97;;;;;;;15.26;100.00;99546.56;31443492;28;20395;-86
2022/11/21 14:18:34;;;;;;;25.80;7.67;;;;;;;15.27;100.00;99518.78;31444034;28;20048;-84
2022/11/21 14:33:40;;;;;;;23.80;9.10;;;;;;;15.33;100.00;99533.34;31424851;28;20448;-82
2022/11/21 14:48:42;;;;;;;28.30;8.77;;;;;;;15.34;100.00;99499.28;31447579;28;20064;-81
2022/11/21 15:03:55;;;;;;;24.10;7.97;;;;;;;15.29;100.00;99463.63;31445959;28;20048;-82
2022/11/21 15:18:58;;;;;;;22.37;7.77;;;;;;;15.26;100.00;99456.34;31429194;28;20051;-81
2022/11/21 15:34:05;;;;;;;32.07;8.30;;;;;;;15.30;100.00;99437.78;31433929;28;20044;-81
2022/11/21 15:49:26;;;;;;;21.30;8.33;;;;;;;15.33;100.00;99432.16;31439000;28;20061;-82
2022/11/21 16:04:35;;;;;;;16.30;7.17;;;;;;;15.31;100.00;99440.06;31445112;28;20132;-83
2022/11/21 16:19:37;;;;;;;18.07;5.97;;;;;;;15.50;100.00;99437.19;31440503;28;20056;-84
2022/11/21 16:34:39;;;;;;;10.43;4.77;;;;;;;15.84;98.99;99422.94;31404678;28;20053;-79
2022/11/21 16:49:45;;;;;;;11.27;3.73;;;;;;;16.36;92.34;99387.72;31428232;28;20480;-82
2022/11/21 17:04:49;;;;;;;16.43;5.00;;;;;;;16.47;88.93;99398.84;31428488;28;20387;-85
2022/11/21 17:19:53;;;;;;;14.00;4.60;;;;;;;16.27;89.87;99390.56;31418816;28;20106;-85
2022/11/21 17:34:55;;;;;;;16.10;4.37;;;;;;;16.05;90.32;99384.75;31434594;28;20049;-85
2022/11/21 17:49:57;;;;;;;14.20;4.50;;;;;;;15.91;91.63;99359.63;31456204;28;20114;-82
2022/11/21 18:05:06;;;;;;;13.87;4.77;;;;;;;15.66;92.87;99347.25;31434259;28;20135;-82
2022/11/21 18:20:08;;;;;;;11.03;4.23;;;;;;;15.45;95.20;99334.66;31438701;28;20053;-82
2022/11/21 18:35:10;;;;;;;12.80;4.50;;;;;;;15.44;93.76;99348.78;31442650;28;20053;-82
2022/11/21 18:50:12;;;;;;;10.83;4.20;;;;;;;15.44;90.68;99343.31;31444866;28;20087;-83
2022/11/21 19:05:14;;;;;;;8.20;3.23;;;;;;;15.73;89.75;99335.19;31456597;28;20118;-82
2022/11/21 19:20:21;;;;;;;14.57;4.63;;;;;;;15.92;90.03;99344.72;31438345;28;20052;-84
2022/11/21 19:35:23;;;;;;;11.67;3.77;;;;;;;15.74;90.84;99342.16;31438652;28;20486;-84
2022/11/21 19:50:25;;;;;;;12.67;3.37;;;;;;;15.71;91.21;99334.13;31435549;28;20079;-84
2022/11/21 20:05:27;;;;;;;11.10;3.60;;;;;;;15.74;90.13;99344.91;31445107;28;20049;-84
2022/11/21 20:20:30;;;;;;;11.80;3.97;;;;;;;15.72;89.72;99320.00;31436930;28;20064;-84
2022/11/21 20:35:32;;;;;;;16.60;4.63;;;;;;;15.60;91.77;99319.03;31431313;28;20468;-83
2022/11/21 20:50:33;;;;;;;14.00;3.60;;;;;;;15.51;88.68;99310.16;31432730;28;20068;-82
2022/11/21 21:06:01;;;;;;;15.60;3.43;;;;;;;15.48;87.29;99305.63;31422252;28;20457;-83
2022/11/21 21:21:13;;;;;;;10.60;3.50;;;;;;;15.37;88.08;99319.81;31422587;28;20048;-83
2022/11/21 21:36:23;;;;;;;10.70;4.00;;;;;;;15.23;88.08;99310.38;31422818;28;20115;-83
2022/11/21 21:51:28;;;;;;;17.37;3.60;;;;;;;15.22;87.26;99273.34;31437060;28;20057;-83
2022/11/21 22:06:34;;;;;;;17.27;3.97;;;;;;;14.98;89.85;99269.91;31424485;28;20388;-82
2022/11/21 22:21:36;;;;;;;;;;;;;;;14.77;89.68;99276.44;31430292;28;20114;-82
2022/11/21 22:36:38;;;;;;;18.60;4.17;;;;;;;14.82;91.54;99289.47;31443226;28;19921;-81
2022/11/21 22:51:40;;;;;;;14.60;4.30;;;;;;;14.66;94.14;99277.72;31428469;28;20061;-82
2022/11/21 23:06:42;;;;;;;8.67;4.30;;;;;;;14.44;96.02;99265.56;31444369;28;20048;-85
2022/11/21 23:21:44;;;;;;;16.30;6.27;;;;;;;14.36;97.83;99262.41;31441298;28;20537;-83
2022/11/21 23:36:46;;;;;;;18.40;6.40;;;;;;;14.08;99.54;99299.25;31440511;28;20515;-81
2022/11/21 23:51:48;;;;;;;11.90;5.47;;;;;;;13.89;100.00;99282.94;31451192;28;20057;-82
